Terminal Aerodrome Forecast
Issued by NWS Cleveland, OH

Home | Current Version | Previous Version | Text Only | Print | Product List | Glossary Off
Versions: 1 2 3 4 5 6 7 8 9 10 11 12 13 14 15 16 17 18 19 20 21 22 23 24 25

000
FTUS41 KCLE 281131
TAFCLE
TAF
KCLE 281131Z 2812/2918 15004KT P6SM FEW040
     FM281600 VRB04KT P6SM SCT040
     FM281800 36010KT P6SM FEW040
     FM290100 05005KT P6SM BKN150
     FM290600 17004KT P6SM OVC150
     FM291500 23007KT P6SM SCT070 OVC100=

USA.gov is the U.S. government's official web portal to all federal, state and local government web resources and services.